Archiv-/Tagesdaten

--Timestamp---	Temp	Chill	HIndex	Humid	Dewpt	Wind	HiWind	WindDir	Rain	Barom	Solar	ET	UV
--------------	----	-----	------	-----	-----	----	------	-------	----	-----	-----	--	--
20080122 00:05	7.1	3.5	7.1	68	1.6	23	39	270	0.00	1011.720	0	0.000	0
20080122 00:10	7.2	3.9	7.2	68	1.7	19	35	270	0.00	1011.686	0	0.000	0
20080122 00:15	7.2	3.8	7.2	68	1.7	21	37	270	0.00	1011.653	0	0.000	0
20080122 00:20	7.2	4.3	7.2	68	1.7	16	32	270	0.00	1011.483	0	0.000	0
20080122 00:25	7.1	4.4	7.1	68	1.6	14	24	270	0.00	1011.483	0	0.000	0
20080122 00:30	7.1	4.2	7.1	69	1.8	16	31	270	0.00	1011.449	0	0.000	0
20080122 00:35	7.0	4.1	7.0	69	1.7	16	27	270	0.00	1011.517	0	0.000	0
20080122 00:40	7.0	4.1	7.0	69	1.7	16	31	270	0.00	1011.246	0	0.000	0
20080122 00:45	7.0	4.1	7.0	70	1.9	16	34	270	0.00	1011.483	0	0.000	0
20080122 00:50	7.0	4.3	7.0	70	1.9	14	24	270	0.00	1011.585	0	0.000	0
20080122 00:55	7.0	4.3	7.0	71	2.1	14	27	270	0.00	1011.449	0	0.000	0
20080122 01:00	6.9	4.5	6.9	71	2.1	13	24	270	0.00	1011.280	0	0.040	0
20080122 01:05	7.0	4.5	7.0	71	2.1	13	24	270	0.00	1011.246	0	0.000	0
20080122 01:10	7.0	4.8	7.0	71	2.1	11	24	270	0.00	1011.212	0	0.000	0
20080122 01:15	7.1	4.6	7.1	71	2.2	13	26	270	0.00	1011.246	0	0.000	0
20080122 01:20	7.0	4.8	7.0	72	2.3	11	27	270	0.00	1011.145	0	0.000	0
20080122 01:25	6.9	4.8	6.9	73	2.4	11	23	247	0.00	1010.975	0	0.000	0
20080122 01:30	6.9	4.7	6.9	74	2.6	11	23	247	0.00	1011.077	0	0.000	0
20080122 01:35	6.9	4.2	6.9	75	2.8	14	26	247	0.00	1011.043	0	0.000	0
20080122 01:40	6.8	4.1	6.8	76	2.9	14	26	247	0.00	1011.145	0	0.000	0
20080122 01:45	6.7	4.5	6.7	77	3.0	11	24	247	0.00	1011.280	0	0.000	0
20080122 01:50	6.8	3.8	6.8	77	3.0	16	27	247	0.00	1011.111	0	0.000	0
20080122 01:55	6.8	3.7	6.8	77	3.1	18	34	270	0.00	1011.179	0	0.000	0
20080122 02:00	6.8	4.3	6.8	77	3.0	13	26	247	0.00	1011.179	0	0.040	0
20080122 02:05	6.9	3.9	6.9	77	3.1	16	29	247	0.00	1010.975	0	0.000	0
20080122 02:10	6.9	4.0	6.9	76	3.0	16	27	247	0.00	1010.806	0	0.000	0
20080122 02:15	7.0	4.3	7.0	76	3.1	14	27	247	0.00	1010.874	0	0.000	0
20080122 02:20	6.9	4.2	6.9	76	3.0	14	26	247	0.00	1010.704	0	0.000	0
20080122 02:25	7.0	3.9	7.0	76	3.1	18	39	247	0.00	1010.467	0	0.000	0
20080122 02:30	7.0	4.1	7.0	77	3.2	16	29	247	0.00	1010.433	0	0.000	0
20080122 02:35	7.0	4.5	7.0	77	3.2	13	32	247	0.00	1010.501	0	0.000	0
20080122 02:40	7.1	4.1	7.1	77	3.3	16	31	247	0.00	1010.366	0	0.000	0
20080122 02:45	7.3	4.0	7.3	75	3.1	19	34	247	0.00	1010.298	0	0.000	0
20080122 02:50	7.4	4.6	7.4	75	3.3	16	31	247	0.00	1010.332	0	0.000	0
20080122 02:55	7.4	4.6	7.4	75	3.3	16	27	247	0.00	1010.332	0	0.000	0
20080122 03:00	7.6	4.8	7.6	74	3.2	16	32	247	0.20	1009.824	0	0.040	0
20080122 03:05	7.6	5.1	7.6	74	3.3	14	27	247	0.00	1009.926	0	0.000	0
20080122 03:10	7.7	4.9	7.7	74	3.3	16	29	247	0.00	1009.858	0	0.000	0
20080122 03:15	7.8	4.7	7.8	74	3.4	19	34	247	0.00	1009.824	0	0.000	0
20080122 03:20	7.8	4.7	7.8	74	3.4	19	35	247	0.00	1009.824	0	0.000	0
20080122 03:25	7.8	4.7	7.8	74	3.5	19	34	247	0.00	1009.756	0	0.000	0
20080122 03:30	7.8	5.0	7.8	74	3.4	16	35	247	0.00	1009.451	0	0.000	0
20080122 03:35	7.8	5.0	7.8	74	3.4	16	27	247	0.00	1009.485	0	0.000	0
20080122 03:40	7.8	5.3	7.8	75	3.6	14	26	247	0.00	1009.519	0	0.000	0
20080122 03:45	7.8	5.5	7.8	74	3.4	13	29	247	0.00	1009.451	0	0.000	0
20080122 03:50	7.8	5.3	7.8	74	3.5	14	27	247	0.00	1009.316	0	0.000	0
20080122 03:55	7.9	5.4	7.9	73	3.4	14	34	247	0.00	1009.282	0	0.000	0
20080122 04:00	7.9	5.7	7.9	73	3.4	13	31	247	0.00	1009.248	0	0.040	0
20080122 04:05	8.0	5.5	8.0	72	3.3	14	27	247	0.00	1009.214	0	0.000	0
20080122 04:10	7.9	5.7	7.9	73	3.4	13	32	247	0.00	1009.113	0	0.000	0
20080122 04:15	7.9	5.1	7.9	72	3.2	18	29	247	0.00	1009.079	0	0.000	0
20080122 04:20	7.9	5.5	7.9	73	3.4	14	29	247	0.00	1009.045	0	0.000	0
20080122 04:25	7.9	5.2	7.9	73	3.4	16	29	270	0.00	1009.045	0	0.000	0
20080122 04:30	7.9	5.2	7.9	74	3.5	16	27	270	0.00	1009.011	0	0.000	0
20080122 04:35	7.8	5.0	7.8	74	3.4	16	26	247	0.00	1008.910	0	0.000	0
20080122 04:40	7.7	5.2	7.7	74	3.4	14	27	247	0.00	1008.876	0	0.000	0
20080122 04:45	7.8	5.0	7.8	74	3.4	16	27	247	0.00	1008.876	0	0.000	0
20080122 04:50	7.7	5.2	7.7	75	3.6	14	29	247	0.00	1008.808	0	0.000	0
20080122 04:55	7.7	5.2	7.7	75	3.6	14	29	270	0.00	1008.876	0	0.000	0
20080122 05:00	7.8	5.3	7.8	74	3.4	14	24	247	0.00	1008.808	0	0.040	0
20080122 05:05	7.8	5.3	7.8	74	3.4	14	29	247	0.00	1008.808	0	0.000	0
20080122 05:10	7.8	5.3	7.8	75	3.6	14	24	247	0.00	1008.706	0	0.000	0
20080122 05:15	7.8	5.3	7.8	74	3.5	14	29	247	0.00	1008.673	0	0.000	0
20080122 05:20	7.8	5.0	7.8	76	3.8	16	42	247	0.00	1008.740	0	0.000	0
20080122 05:25	7.7	4.5	7.7	77	3.9	19	35	247	0.00	1008.740	0	0.000	0
20080122 05:30	7.4	4.1	7.4	79	4.0	21	39	247	0.00	1008.740	0	0.000	0
20080122 05:35	7.2	4.2	7.2	80	4.0	18	32	270	0.00	1008.774	0	0.000	0
20080122 05:40	7.2	4.1	7.2	80	3.9	18	34	247	0.00	1008.571	0	0.000	0
20080122 05:45	7.1	3.9	7.1	80	3.8	18	34	247	0.00	1008.503	0	0.000	0
20080122 05:50	7.1	3.9	7.1	81	4.0	18	37	247	0.20	1008.266	0	0.000	0
20080122 05:55	7.1	3.9	7.1	81	4.0	18	35	247	0.00	1008.334	0	0.000	0
20080122 06:00	7.0	4.1	7.0	81	4.0	16	34	247	0.00	1008.368	0	0.040	0
20080122 06:05	7.0	4.1	7.0	81	4.0	16	34	247	0.00	1008.334	0	0.000	0
20080122 06:10	7.1	3.9	7.1	80	3.8	18	32	247	0.00	1008.368	0	0.000	0
20080122 06:15	7.1	4.2	7.1	80	3.9	16	35	247	0.00	1008.232	0	0.000	0
20080122 06:20	7.1	4.7	7.1	80	3.9	13	26	247	0.00	1008.198	0	0.000	0
20080122 06:25	7.1	4.4	7.1	81	4.1	14	29	247	0.00	1008.368	0	0.000	0
20080122 06:30	7.1	4.4	7.1	80	3.9	14	35	247	0.00	1008.402	0	0.000	0
20080122 06:35	7.2	4.4	7.2	79	3.8	16	31	247	0.00	1008.334	0	0.000	0
20080122 06:40	7.2	4.4	7.2	79	3.8	16	31	247	0.00	1008.266	0	0.000	0
20080122 06:45	7.2	4.2	7.2	79	3.8	18	37	247	0.00	1008.300	0	0.000	0
20080122 06:50	7.2	4.6	7.2	79	3.8	14	27	247	0.00	1008.469	0	0.000	0
20080122 06:55	7.2	4.4	7.2	79	3.8	16	29	247	0.00	1008.469	0	0.000	0
20080122 07:00	7.2	3.8	7.2	79	3.8	21	45	247	0.00	1008.571	0	0.020	0
20080122 07:05	7.1	3.8	7.1	81	4.1	19	37	247	0.00	1008.469	0	0.000	0
20080122 07:10	7.0	3.7	7.0	81	4.0	19	39	247	0.00	1008.402	0	0.000	0
20080122 07:15	6.9	3.8	6.9	81	3.9	18	35	247	0.20	1008.537	0	0.000	0
20080122 07:20	6.8	3.9	6.8	82	4.0	16	34	247	0.00	1008.639	0	0.000	0
20080122 07:25	6.8	3.6	6.8	82	3.9	18	32	247	0.00	1008.605	0	0.000	0
20080122 07:30	6.7	3.7	6.7	82	3.9	16	26	247	0.00	1008.673	0	0.000	0
20080122 07:35	6.7	3.7	6.7	82	3.8	16	29	247	0.00	1008.639	0	0.000	0
20080122 07:40	6.6	3.8	6.6	83	3.9	14	29	270	0.20	1008.639	0	0.000	0
20080122 07:45	6.5	3.5	6.5	84	4.0	16	31	247	0.00	1008.842	0	0.000	0
20080122 07:50	6.4	3.3	6.4	85	4.1	16	27	247	0.20	1008.842	0	0.000	0
20080122 07:55	6.3	3.3	6.3	85	4.0	16	35	247	0.20	1008.842	0	0.000	0
20080122 08:00	6.2	2.9	6.2	85	3.9	18	29	247	0.00	1008.740	0	0.020	0
20080122 08:05	6.1	3.8	6.1	86	3.9	11	23	270	0.20	1008.740	0	0.000	0
20080122 08:10	6.1	3.4	6.1	87	4.1	13	26	247	0.00	1008.774	0	0.000	0
20080122 08:15	6.0	3.9	6.0	88	4.2	10	19	247	0.00	1008.876	0	0.000	0
20080122 08:20	5.9	3.6	5.9	88	4.1	11	32	270	0.00	1008.774	0	0.000	0
20080122 08:25	5.9	3.2	5.9	88	4.1	13	26	247	0.20	1008.706	0	0.000	0
20080122 08:30	5.9	3.2	5.9	88	4.1	13	24	247	0.00	1008.673	0	0.000	0
20080122 08:35	5.9	3.5	5.9	88	4.1	11	23	247	0.00	1008.673	3	0.000	0
20080122 08:40	6.0	2.8	6.0	87	4.0	16	27	247	0.00	1008.673	9	0.000	0
20080122 08:45	6.1	3.4	6.1	86	3.9	13	26	247	0.00	1008.402	8	0.000	0
20080122 08:50	6.1	3.7	6.1	86	3.9	11	24	270	0.00	1008.537	25	0.000	0
20080122 08:55	6.3	3.0	6.3	85	3.9	18	32	247	0.00	1008.503	55	0.000	0
20080122 09:00	6.3	3.5	6.3	84	3.8	14	27	247	0.00	1008.605	33	0.020	0
20080122 09:05	6.4	3.6	6.4	84	3.9	14	24	247	0.00	1008.605	24	0.000	0
20080122 09:10	6.4	3.6	6.4	83	3.8	14	27	247	0.00	1008.774	16	0.000	0
20080122 09:15	6.4	3.6	6.4	83	3.8	14	32	247	0.00	1008.808	22	0.000	0
20080122 09:20	6.5	3.2	6.5	82	3.7	18	31	247	0.00	1008.639	30	0.000	0
20080122 09:25	6.6	3.5	6.6	81	3.5	16	31	247	0.00	1008.774	30	0.000	0
20080122 09:30	6.7	3.9	6.7	81	3.6	14	26	270	0.00	1008.876	19	0.000	0
20080122 09:35	6.7	3.7	6.7	81	3.7	16	35	247	0.00	1008.876	19	0.000	0
20080122 09:40	6.7	3.9	6.7	81	3.6	14	26	247	0.00	1008.876	34	0.000	0
20080122 09:45	6.7	3.9	6.7	80	3.5	14	34	247	0.00	1008.876	36	0.000	0
20080122 09:50	6.7	3.7	6.7	80	3.5	16	35	247	0.00	1008.910	68	0.000	0
20080122 09:55	6.8	3.9	6.8	80	3.6	16	31	247	0.00	1008.943	81	0.000	0
20080122 10:00	6.9	4.4	6.9	80	3.7	13	29	247	0.00	1009.214	60	0.040	0
20080122 10:05	6.9	3.8	6.9	79	3.6	18	32	247	0.00	1009.113	69	0.000	0
20080122 10:10	7.0	4.1	7.0	79	3.6	16	29	247	0.00	1009.316	62	0.000	0
20080122 10:15	7.1	3.9	7.1	79	3.7	18	37	270	0.00	1009.384	99	0.000	0
20080122 10:20	7.1	3.8	7.1	80	3.9	19	35	247	0.00	1009.655	118	0.000	0
20080122 10:25	7.0	3.7	7.0	81	4.0	19	37	247	0.00	1009.722	67	0.000	0
20080122 10:30	6.8	3.9	6.8	82	4.0	16	35	247	0.00	1009.993	52	0.000	0
20080122 10:35	6.7	3.0	6.7	82	3.9	23	37	247	0.00	1010.196	44	0.000	0
20080122 10:40	6.6	3.1	6.6	82	3.7	19	39	270	0.00	1010.264	53	0.000	0
20080122 10:45	6.4	2.8	6.4	82	3.6	21	34	247	0.00	1010.264	64	0.000	0
20080122 10:50	6.3	3.0	6.3	84	3.8	18	37	270	0.00	1010.332	57	0.000	0
20080122 10:55	6.2	3.0	6.2	86	4.0	16	34	247	0.20	1010.298	63	0.000	0
20080122 11:00	6.1	2.9	6.1	87	4.1	16	34	270	0.00	1010.400	92	0.040	0
20080122 11:05	6.1	3.2	6.1	87	4.1	14	32	247	0.00	1010.298	97	0.000	0
20080122 11:10	6.2	3.0	6.2	85	3.8	16	27	270	0.00	1010.196	72	0.000	0
20080122 11:15	6.3	3.0	6.3	85	3.9	18	32	247	0.00	1010.264	27	0.000	0
20080122 11:20	6.1	3.0	6.1	86	3.9	16	32	247	0.20	1010.298	22	0.000	0
20080122 11:25	5.9	3.0	5.9	87	3.9	14	24	270	0.20	1010.433	23	0.000	0
20080122 11:30	5.9	3.0	5.9	87	3.9	14	31	270	0.00	1010.433	23	0.000	0
20080122 11:35	5.9	2.9	5.9	87	3.9	14	27	270	0.20	1010.569	26	0.000	0
20080122 11:40	5.9	2.9	5.9	87	3.9	14	31	247	0.20	1010.603	33	0.000	0
20080122 11:45	5.8	2.1	5.8	87	3.8	19	40	270	0.40	1010.738	27	0.000	0
20080122 11:50	5.7	1.8	5.7	87	3.7	21	34	270	0.60	1011.009	29	0.000	0
20080122 11:55	5.6	1.9	5.6	88	3.7	19	35	270	0.20	1011.077	27	0.000	0
20080122 12:00	5.5	1.4	5.5	88	3.7	23	35	270	0.20	1011.179	25	0.020	0
20080122 12:05	5.4	1.7	5.4	88	3.6	19	29	270	0.20	1011.416	22	0.000	0
20080122 12:10	5.4	1.7	5.4	89	3.8	19	29	270	0.20	1011.585	14	0.000	0
20080122 12:15	5.3	1.1	5.3	88	3.5	23	37	270	0.60	1011.822	17	0.000	0
20080122 12:20	5.1	0.5	5.1	88	3.2	26	40	270	0.20	1012.093	23	0.000	0
20080122 12:25	4.9	0.0	4.9	87	2.9	29	42	270	0.20	1012.194	38	0.000	0
20080122 12:30	4.7	0.3	4.7	88	2.9	24	43	270	0.00	1012.499	48	0.000	0
20080122 12:35	4.6	0.1	4.6	88	2.7	24	40	270	0.00	1012.838	32	0.000	0
20080122 12:40	4.4	0.2	4.4	88	2.6	21	39	292	0.20	1013.177	55	0.000	0
20080122 12:45	4.3	-0.5	4.3	86	2.1	26	45	292	0.00	1013.278	46	0.000	0
20080122 12:50	4.1	-0.7	4.1	87	2.1	26	47	292	0.00	1013.617	25	0.000	0
20080122 12:55	3.7	-0.4	3.7	86	1.6	19	32	292	0.20	1013.854	30	0.000	0
20080122 13:00	3.3	-1.5	3.3	87	1.4	24	42	315	0.00	1014.192	31	0.020	0
20080122 13:05	3.3	-1.6	3.3	88	1.5	24	35	315	0.00	1014.396	41	0.000	0
20080122 13:10	3.3	-1.4	3.3	89	1.6	23	35	315	0.00	1014.633	43	0.000	0
20080122 13:15	3.1	-0.5	3.1	86	1.0	14	27	22	0.20	1015.039	19	0.000	0
20080122 13:20	2.2	-0.6	2.2	87	0.3	10	21	22	0.20	1015.411	21	0.000	0
20080122 13:25	1.8	-1.0	1.8	89	0.2	10	19	337	0.00	1015.716	33	0.000	0
20080122 13:30	1.6	-1.7	1.6	89	-0.0	11	23	337	0.00	1015.886	43	0.000	0
20080122 13:35	1.6	-1.4	1.6	88	-0.2	10	23	315	0.20	1016.055	59	0.000	0
20080122 13:40	1.6	-1.7	1.6	88	-0.2	11	23	315	0.00	1016.190	56	0.000	0
20080122 13:45	1.5	-1.0	1.5	89	-0.1	8	16	337	0.00	1016.495	55	0.000	0
20080122 13:50	1.5	-1.4	1.5	90	0.0	10	19	337	0.00	1016.732	49	0.000	0
20080122 13:55	1.4	-1.0	1.4	90	-0.0	8	16	315	0.00	1017.003	27	0.000	0
20080122 14:00	1.5	-0.4	1.5	90	0.0	6	19	315	0.00	1017.172	30	0.020	0
20080122 14:05	1.6	-0.9	1.6	91	0.2	8	24	315	0.00	1017.206	25	0.000	0
20080122 14:10	1.6	-1.7	1.6	90	0.1	11	23	315	0.00	1017.443	25	0.000	0
20080122 14:15	1.6	-0.8	1.6	91	0.3	8	16	315	0.00	1017.680	37	0.000	0
20080122 14:20	1.7	-1.6	1.7	90	0.2	11	34	315	0.00	1017.579	42	0.000	0
20080122 14:25	1.8	-1.8	1.8	89	0.2	13	31	315	0.00	1017.884	73	0.000	0
20080122 14:30	1.9	-1.9	1.9	86	-0.1	14	29	315	0.00	1018.053	79	0.000	0
20080122 14:35	2.1	-2.3	2.1	85	-0.2	18	37	315	0.00	1018.290	56	0.000	0
20080122 14:40	2.1	-2.0	2.1	84	-0.3	16	31	315	0.00	1018.425	65	0.000	0
20080122 14:45	2.2	-1.9	2.2	83	-0.4	16	29	315	0.00	1018.629	93	0.000	0
20080122 14:50	2.2	-1.6	2.2	82	-0.5	14	27	315	0.00	1018.764	94	0.000	0
20080122 14:55	2.2	-2.3	2.2	81	-0.7	19	39	315	0.00	1018.798	100	0.000	0
20080122 15:00	2.3	-2.0	2.3	79	-1.0	18	31	315	0.00	1018.933	40	0.020	0
20080122 15:05	2.3	-1.4	2.3	78	-1.1	14	26	315	0.00	1019.137	38	0.000	0
20080122 15:10	2.4	-1.4	2.4	77	-1.2	14	29	315	0.00	1019.306	35	0.000	0
20080122 15:15	2.4	-1.1	2.4	77	-1.2	13	26	315	0.00	1019.543	37	0.000	0
20080122 15:20	2.4	-1.0	2.4	77	-1.2	13	27	315	0.00	1019.678	59	0.000	0
20080122 15:25	2.6	-0.2	2.6	78	-0.9	10	19	315	0.00	1019.915	102	0.000	0
20080122 15:30	2.7	-0.7	2.7	77	-1.0	13	24	315	0.00	1020.051	98	0.000	0
20080122 15:35	2.8	-0.9	2.8	78	-0.7	14	24	315	0.00	1020.254	80	0.000	0
20080122 15:40	2.9	-1.3	2.9	75	-1.1	18	39	292	0.00	1020.423	70	0.000	0
20080122 15:45	2.9	-0.9	2.9	76	-0.9	16	27	292	0.00	1020.660	69	0.000	0
20080122 15:50	2.9	-0.1	2.9	78	-0.6	11	26	292	0.00	1020.830	53	0.000	0
20080122 15:55	2.8	-0.3	2.8	76	-1.0	11	23	270	0.00	1020.999	34	0.000	0
20080122 16:00	2.7	-0.4	2.7	78	-0.8	11	23	270	0.00	1021.270	22	0.040	0
20080122 16:05	2.6	-1.4	2.6	74	-1.6	16	29	270	0.00	1021.338	29	0.000	0
20080122 16:10	2.7	-1.0	2.7	75	-1.3	14	27	270	0.00	1021.541	25	0.000	0
20080122 16:15	2.6	-1.1	2.6	72	-1.9	14	21	292	0.00	1021.676	20	0.000	0
20080122 16:20	2.6	-1.2	2.6	72	-2.0	14	26	292	0.00	1021.947	19	0.000	0
20080122 16:25	2.5	-2.0	2.5	70	-2.4	19	35	292	0.00	1022.117	16	0.000	0
20080122 16:30	2.4	-1.3	2.4	70	-2.5	14	24	270	0.00	1022.252	11	0.000	0
20080122 16:35	2.4	-1.4	2.4	71	-2.3	14	29	292	0.00	1022.320	10	0.000	0
20080122 16:40	2.3	-0.8	2.3	72	-2.2	11	21	270	0.00	1022.455	7	0.000	0
20080122 16:45	2.3	-0.5	2.3	72	-2.2	10	18	270	0.00	1022.557	1	0.000	0
20080122 16:50	2.3	-0.5	2.3	72	-2.2	10	14	270	0.00	1022.726	0	0.000	0
20080122 16:55	2.3	-0.1	2.3	74	-1.9	8	16	270	0.00	1022.895	0	0.000	0
20080122 17:00	2.2	-0.6	2.2	74	-1.9	10	19	270	0.00	1022.929	0	0.020	0
20080122 17:05	2.2	-0.1	2.2	75	-1.7	8	16	270	0.00	1023.200	0	0.000	0
20080122 17:10	2.2	-0.1	2.2	76	-1.6	8	16	270	0.00	1023.268	0	0.000	0
20080122 17:15	2.2	-0.6	2.2	75	-1.8	10	21	270	0.00	1023.403	0	0.000	0
20080122 17:20	2.1	-0.7	2.1	75	-1.9	10	24	270	0.00	1023.573	0	0.000	0
20080122 17:25	2.1	-1.1	2.1	75	-1.9	11	23	270	0.00	1023.742	0	0.000	0
20080122 17:30	2.1	-0.8	2.1	76	-1.7	10	18	270	0.00	1023.979	0	0.000	0
20080122 17:35	2.1	-1.1	2.1	76	-1.7	11	19	270	0.00	1024.115	0	0.000	0
20080122 17:40	2.0	-0.8	2.0	76	-1.8	10	21	270	0.00	1024.352	0	0.000	0
20080122 17:45	1.9	-0.5	1.9	77	-1.7	8	18	270	0.00	1024.487	0	0.000	0
20080122 17:50	1.9	-0.5	1.9	77	-1.7	8	16	270	0.00	1024.623	0	0.000	0
20080122 17:55	1.8	-0.6	1.8	77	-1.8	8	16	270	0.00	1024.724	0	0.000	0
20080122 18:00	1.8	-0.6	1.8	77	-1.8	8	14	270	0.00	1024.961	0	0.020	0
20080122 18:05	1.8	-1.1	1.8	77	-1.8	10	19	270	0.00	1024.995	0	0.000	0
20080122 18:10	1.8	-0.6	1.8	77	-1.8	8	16	270	0.00	1025.198	0	0.000	0
20080122 18:15	1.7	-0.7	1.7	77	-1.9	8	16	270	0.00	1025.300	0	0.000	0
20080122 18:20	1.7	-0.3	1.7	77	-1.9	6	13	270	0.00	1025.401	0	0.000	0
20080122 18:25	1.6	-0.8	1.6	76	-2.2	8	14	270	0.00	1025.469	0	0.000	0
20080122 18:30	1.6	-0.8	1.6	76	-2.2	8	16	270	0.00	1025.638	0	0.000	0
20080122 18:35	1.6	-0.8	1.6	75	-2.3	8	16	270	0.00	1025.672	0	0.000	0
20080122 18:40	1.6	-0.8	1.6	76	-2.2	8	18	292	0.00	1025.774	0	0.000	0
20080122 18:45	1.7	-0.3	1.7	76	-2.1	6	11	270	0.00	1025.842	0	0.000	0
20080122 18:50	1.6	1.6	1.6	77	-2.0	5	11	270	0.00	1025.774	0	0.000	0
20080122 18:55	1.6	-0.4	1.6	77	-2.0	6	14	270	0.00	1025.943	0	0.000	0
20080122 19:00	1.6	-0.4	1.6	76	-2.2	6	16	270	0.00	1026.079	0	0.020	0
20080122 19:05	1.6	-0.9	1.6	77	-2.0	8	18	270	0.00	1026.248	0	0.000	0
20080122 19:10	1.6	-1.4	1.6	77	-2.0	10	16	270	0.00	1026.383	0	0.000	0
20080122 19:15	1.5	-1.0	1.5	77	-2.1	8	16	270	0.00	1026.485	0	0.000	0
20080122 19:20	1.4	-1.0	1.4	78	-2.0	8	14	270	0.00	1026.485	0	0.000	0
20080122 19:25	1.3	-1.2	1.3	78	-2.1	8	13	270	0.00	1026.654	0	0.000	0
20080122 19:30	1.3	-1.2	1.3	78	-2.1	8	14	270	0.00	1026.756	0	0.000	0
20080122 19:35	1.3	-1.2	1.3	79	-1.9	8	11	270	0.00	1026.959	0	0.000	0
20080122 19:40	1.2	-0.8	1.2	79	-2.0	6	13	270	0.00	1027.061	0	0.000	0
20080122 19:45	1.2	-1.4	1.2	79	-2.1	8	16	270	0.00	1027.230	0	0.000	0
20080122 19:50	1.2	-1.4	1.2	79	-2.1	8	16	270	0.00	1027.365	0	0.000	0
20080122 19:55	1.1	-1.9	1.1	79	-2.1	10	18	270	0.00	1027.365	0	0.000	0
20080122 20:00	1.1	-2.3	1.1	79	-2.1	11	19	270	0.00	1027.433	0	0.020	0
20080122 20:05	1.1	-1.9	1.1	79	-2.1	10	18	270	0.00	1027.433	0	0.000	0
20080122 20:10	1.2	-1.8	1.2	79	-2.1	10	19	270	0.00	1027.704	0	0.000	0
20080122 20:15	1.2	-1.4	1.2	80	-1.9	8	14	270	0.00	1027.738	0	0.000	0
20080122 20:20	1.1	-1.5	1.1	80	-2.0	8	16	270	0.00	1027.840	0	0.000	0
20080122 20:25	1.0	-1.0	1.0	80	-2.1	6	16	270	0.00	1028.077	0	0.000	0
20080122 20:30	0.9	-1.2	0.9	80	-2.2	6	11	270	0.00	1028.212	0	0.000	0
20080122 20:35	0.8	-1.3	0.8	81	-2.1	6	10	270	0.00	1028.110	0	0.000	0
20080122 20:40	0.7	-1.3	0.7	81	-2.2	6	11	270	0.00	1028.178	0	0.000	0
20080122 20:45	0.7	-2.0	0.7	81	-2.2	8	14	292	0.00	1028.314	0	0.000	0
20080122 20:50	0.7	-1.4	0.7	80	-2.4	6	16	270	0.00	1028.348	0	0.000	0
20080122 20:55	0.6	-2.0	0.6	80	-2.4	8	16	270	0.00	1028.517	0	0.000	0
20080122 21:00	0.6	-2.5	0.6	80	-2.4	10	16	292	0.00	1028.652	0	0.020	0
20080122 21:05	0.6	-1.5	0.6	80	-2.4	6	11	270	0.00	1028.686	0	0.000	0
20080122 21:10	0.6	-2.1	0.6	79	-2.7	8	18	292	0.00	1028.855	0	0.000	0
20080122 21:15	0.5	-2.1	0.5	80	-2.5	8	14	270	0.00	1028.957	0	0.000	0
20080122 21:20	0.4	-2.2	0.4	80	-2.6	8	13	270	0.00	1029.059	0	0.000	0
20080122 21:25	0.4	-1.7	0.4	80	-2.7	6	11	292	0.00	1029.160	0	0.000	0
20080122 21:30	0.3	-1.8	0.3	80	-2.7	6	11	270	0.00	1029.194	0	0.000	0
20080122 21:35	0.3	-1.8	0.3	80	-2.7	6	16	270	0.00	1029.228	0	0.000	0
20080122 21:40	0.3	-1.9	0.3	80	-2.8	6	10	270	0.00	1029.296	0	0.000	0
20080122 21:45	0.3	-1.9	0.3	80	-2.8	6	11	270	0.00	1029.397	0	0.000	0
20080122 21:50	0.3	-1.8	0.3	79	-2.9	6	10	270	0.00	1029.431	0	0.000	0
20080122 21:55	0.3	-1.8	0.3	80	-2.7	6	14	270	0.00	1029.533	0	0.000	0
20080122 22:00	0.3	-1.8	0.3	80	-2.7	6	11	270	0.00	1029.567	0	0.020	0
20080122 22:05	0.3	-1.8	0.3	80	-2.7	6	10	270	0.00	1029.634	0	0.000	0
20080122 22:10	0.3	0.3	0.3	80	-2.8	5	10	270	0.00	1029.770	0	0.000	0
20080122 22:15	0.3	0.3	0.3	80	-2.8	5	11	270	0.00	1029.871	0	0.000	0
20080122 22:20	0.3	-1.9	0.3	80	-2.8	6	13	270	0.00	1030.041	0	0.000	0
20080122 22:25	0.2	-1.9	0.2	80	-2.8	6	14	270	0.00	1030.244	0	0.000	0
20080122 22:30	0.2	-2.5	0.2	79	-3.0	8	16	270	0.00	1030.312	0	0.000	0
20080122 22:35	0.2	-2.5	0.2	79	-3.0	8	21	270	0.00	1030.413	0	0.000	0
20080122 22:40	0.2	-2.9	0.2	78	-3.2	10	18	270	0.00	1030.515	0	0.000	0
20080122 22:45	0.2	-2.5	0.2	78	-3.2	8	14	270	0.00	1030.650	0	0.000	0
20080122 22:50	0.2	-1.9	0.2	79	-3.0	6	14	270	0.00	1030.718	0	0.000	0
20080122 22:55	0.2	-2.0	0.2	79	-3.0	6	11	270	0.00	1030.752	0	0.000	0
20080122 23:00	0.1	0.1	0.1	80	-3.0	5	8	270	0.00	1030.752	0	0.020	0
20080122 23:05	-0.1	-0.1	-0.1	81	-2.9	5	8	270	0.00	1030.887	0	0.000	0
20080122 23:10	-0.2	-2.4	-0.2	81	-3.0	6	11	270	0.00	1030.854	0	0.000	0
20080122 23:15	-0.2	-2.4	-0.2	81	-3.1	6	11	270	0.00	1030.989	0	0.000	0
20080122 23:20	-0.3	-2.5	-0.3	81	-3.1	6	10	270	0.00	1031.057	0	0.000	0
20080122 23:25	-0.3	-2.6	-0.3	82	-3.0	6	10	270	0.00	1031.192	0	0.000	0
20080122 23:30	-0.3	-0.3	-0.3	82	-3.0	5	10	270	0.00	1031.226	0	0.000	0
20080122 23:35	-0.4	-0.4	-0.4	83	-2.9	5	10	270	0.00	1031.361	0	0.000	0
20080122 23:40	-0.4	-0.4	-0.4	84	-2.8	5	8	247	0.00	1031.497	0	0.000	0
20080122 23:45	-0.5	-0.5	-0.5	84	-2.9	5	8	247	0.00	1031.463	0	0.000	0
20080122 23:50	-0.5	-0.5	-0.5	85	-2.7	5	10	247	0.00	1031.531	0	0.000	0
20080122 23:55	-0.4	-3.3	-0.4	85	-2.7	8	16	270	0.00	1031.666	0	0.000	0
20080122 24:00	-0.3	-0.3	-0.3	85	-2.5	5	10	270	0.00	1031.463	0	0.000	0



Please note the license to use and transfer of this data:
http://creativecommons.org/licenses/by-nc-sa/3.0/deed.en

Bitte beachten sie die Lizenz zur Verwertung und Weitergabe der Daten:
http://creativecommons.org/licenses/by-nc-sa/3.0/deed.de

zurück zur Übersicht der Archivdaten (Monats und Tagesdaten)

Cookies helfen bei der Bereitstellung von Inhalten. Durch die Nutzung dieser Seiten erklärst du dich damit einverstanden, dass Cookies auf deinem Rechner gespeichert werden. Weitere Information